EGNV Información de aeropuertos

Información de pistas
Pista 05 Longitud 7516 ft Ancho 148 ft
Elevación 115 ft Umbral ft Rumbo 48
Pista 23 Longitud 7516 ft Ancho 148 ft
Elevación 116 ft Umbral ft Rumbo 228
Frecuencias
Tipo ATIS Nombre ATIS Frequencia 132.375 MHZ
Tipo RADAR Nombre Durham Rad Frequencia 118.85 MHZ
Tipo TWR Nombre Durham Tow Frequencia 119.8 MHZ
Radioayudas
Información meteorológica y NOTAM
ADDS - METARS form results

(1000 UTC 16 August 2022)
Data provider http://aviationweather.gov/metar/data/
 
METAR text: EGNV 160950Z 06009KT 6000 VCSH SCT012 BKN029 18/15 Q1007
Conditions at: EGNV (TEES-SIDE , GB) observed 0950 UTC 16 August 2022
Temperature: 18.0°C (64°F)
Dewpoint: 15.0°C (59°F) [RH = 83%]
Pressure (altimeter): 29.73 inches Hg (1007.0 mb)
Winds: from the ENE (60 degrees) at 10 MPH (9 knots; 4.6 m/s)
Visibility: 4 miles ( 6 km)
Ceiling: 2900 feet AGL
Clouds: scattered clouds at 1200 feet AGL
broken clouds at 2900 feet AGL
Weather: VCSH  (showers in vicinity)

METAR text: EGNV 160920Z VRB02KT 7000 VCSH FEW008 SCT021 20/15 Q1007
Conditions at: EGNV (TEES-SIDE , GB) observed 0920 UTC 16 August 2022
Temperature: 20.0°C (68°F)
Dewpoint: 15.0°C (59°F) [RH = 73%]
Pressure (altimeter): 29.73 inches Hg (1007.0 mb)
Winds: variable direction winds at 2 MPH (2 knots; 1.0 m/s)
Visibility: 4 miles ( 7 km)
Ceiling: at least 12,000 feet AGL
Clouds: few clouds at 800 feet AGL
scattered clouds at 2100 feet AGL
Weather: VCSH  (showers in vicinity)

Forecast for: EGNV (TEES-SIDE , GB)
Text: TAF EGNV 160757Z 1609/1618 VRB04KT 9999 BKN020
Forecast period: 0900 to 1800 UTC 16 August 2022
Forecast type: FROM: standard forecast or significant change
Winds: variable direction winds at 5 MPH (4 knots; 2.1 m/s)
Visibility: 6 or more miles (10+ km)
Ceiling: 2000 feet AGL
Clouds: broken clouds at 2000 feet AGL
Weather: no significant weather forecast for this period
Text: BECMG 1609/1612 01010KT
Forecast period: 0900 to 1800 UTC 16 August 2022
Forecast type: BECOMING: Conditions expected to become as follows by 1200 UTC 16 August 2022
Winds: from the N (10 degrees) at 12 MPH (10 knots; 5.1 m/s)
Visibility: 6 or more miles (10+ km)
Ceiling: 2000 feet AGL
Clouds: broken clouds at 2000 feet AGL
Weather: no significant weather forecast for this period
Text: PROB40
Forecast period: 0900 to 1800 UTC 16 August 2022
Forecast type: TEMPORARY: The following changes expected for less than half the time period
Visibility: 4 miles (7 km)
Ceiling: 900 feet AGL
Clouds: broken clouds at 900 feet AGL
Weather: SHRA RA  (rain showers, moderate rain)